Main page
METAR-TAF:

METAR-TAF

Airports :

Reykjavík Airport

Reykjavík, Iceland

latitude: 64-08N, longitude: 021-54W, elevation: 54 m

Current weather observation

The report was made 51 minutes ago, at 21:00 UTC
Wind 12 kt from the North
Temperature 10°C
Humidity 71%
Pressure 993 hPa
Visibility 10 km or more
Few clouds at a height of 3500 ft
Scattered clouds at a height of 5500 ft
Broken clouds at a height of 11000 ft

METAR: BIRK 172100Z 01012KT 9999 FEW035 SCT055 BKN110 10/05 Q0993

Time: 21:51 (21:51 UTC)

Forecast

The report was made 1 hour and 52 minutes ago, at 19:59 UTC
Forecast valid from 17 at 21 UTC to 18 at 21 UTC
Wind 8 kt from the Northwest
Visibility 10 km or more
Scattered clouds at a height of 3000 ft
Broken clouds at a height of 5000 ft
Temporary
from 17 at 21 UTC to 17 at 23 UTC
Broken clouds at a height of 2000 ft
rain showers

TAF: BIRK 171959Z 1721/1821 31008KT 9999 SCT030 BKN050 TX12/1815Z TN07/1806Z TEMPO 1721/1723 SHRA BKN020

Weather observations and forecasts of more than 4000 airports (METAR and TAF reports).

The available stations are represented by yellow and red dots on the map.

Hover mouse over dot to see the name of the station.

Then click to see weather observations and forecasts.

To change the map : click on the green buttons with a black cross to zoom in, on the green button with a dash to zoom out, or on the green arrows for adjacent maps.


METAR-TAF: